To NAV CANADA Home Page Login to a new session Search on AWWS site Feedback and Comments Disclaimer Vers la page française équivalente Tips FAQ What's new on the site To the Forecasts and Observations / NOTAM section To "File a Flight Plan" website Publications and other links Update of the User's profile FIC Telephone Numbers My Weather Data Folder Route Weather Data Regional Weather Data Local Weather Data To the Forecasts and Observations / NOTAM section
Request Generated 02/10/2016 at 00:23:33 UTC . Weather information available at that time is displayed.

METAR/TAF

SASKATOON/JOHN G. DIEFENBAKER INTL/SK    

METAR CYXE 100000Z 13007KT 15SM SCT045 BKN110 M01/M03 A3000 RMK
SC3AC4 PRESFR SLP191=
METAR CYXE 092300Z 15009KT 15SM SCT075 BKN110 BKN270 M01/M03 A3003
RMK AC3AC3CI1 SLP201=
METAR CYXE 092200Z 13011KT 15SM SCT020 BKN080 BKN270 M01/M03 A3005
RMK SC3AC3CI1 SLP210=

TAF CYXE 092338Z 1000/1024 14008KT P6SM SCT015 OVC060 TEMPO 1000/1004
5SM -SN BKN020 OVC040
FM100400 18006KT P6SM BKN040 BKN100
BECMG 1006/1008 30012KT
FM101200 30012G22KT P6SM SCT015 BKN030 TEMPO 1012/1018 5SM -SN
BKN015 OVC030 PROB30 1012/1018 5SM -FZDZ BR
FM101800 03015KT P6SM SCT015 BKN030
RMK NXT FCST BY 100600Z=
Your time UTC time
Weather data provided by Environment Canada and NAV CANADA